sensor_id;sensor_type;location;lat;lon;timestamp;temperature;humidity
4097;DHT22;2062;50.694;7.246;2023-05-10T00:01:30;14.30;63.00
4097;DHT22;2062;50.694;7.246;2023-05-10T00:03:57;14.30;62.90
4097;DHT22;2062;50.694;7.246;2023-05-10T00:06:24;14.30;63.10
4097;DHT22;2062;50.694;7.246;2023-05-10T00:08:52;14.20;63.00
4097;DHT22;2062;50.694;7.246;2023-05-10T00:11:19;14.20;63.00
4097;DHT22;2062;50.694;7.246;2023-05-10T00:13:46;14.20;62.80
4097;DHT22;2062;50.694;7.246;2023-05-10T00:16:13;14.20;62.70
4097;DHT22;2062;50.694;7.246;2023-05-10T00:18:40;14.20;62.90
4097;DHT22;2062;50.694;7.246;2023-05-10T00:21:07;14.30;63.00
4097;DHT22;2062;50.694;7.246;2023-05-10T00:23:34;14.10;62.90
4097;DHT22;2062;50.694;7.246;2023-05-10T00:26:02;14.20;62.70
4097;DHT22;2062;50.694;7.246;2023-05-10T00:28:29;14.20;62.70
4097;DHT22;2062;50.694;7.246;2023-05-10T00:30:56;14.10;62.90
4097;DHT22;2062;50.694;7.246;2023-05-10T00:33:23;14.10;63.00
4097;DHT22;2062;50.694;7.246;2023-05-10T00:35:49;14.20;63.10
4097;DHT22;2062;50.694;7.246;2023-05-10T00:38:16;14.10;63.20
4097;DHT22;2062;50.694;7.246;2023-05-10T00:40:43;14.10;63.20
4097;DHT22;2062;50.694;7.246;2023-05-10T00:43:11;14.10;63.10
4097;DHT22;2062;50.694;7.246;2023-05-10T00:45:39;14.10;63.30
4097;DHT22;2062;50.694;7.246;2023-05-10T00:48:07;14.10;63.30
4097;DHT22;2062;50.694;7.246;2023-05-10T00:50:34;14.10;63.10
4097;DHT22;2062;50.694;7.246;2023-05-10T00:53:01;14.10;63.30
4097;DHT22;2062;50.694;7.246;2023-05-10T00:55:28;14.10;63.30
4097;DHT22;2062;50.694;7.246;2023-05-10T00:57:56;14.00;63.30
4097;DHT22;2062;50.694;7.246;2023-05-10T01:00:24;14.10;63.40
4097;DHT22;2062;50.694;7.246;2023-05-10T01:02:52;14.10;63.40
4097;DHT22;2062;50.694;7.246;2023-05-10T01:05:19;14.00;63.40
4097;DHT22;2062;50.694;7.246;2023-05-10T01:07:46;14.00;63.50
4097;DHT22;2062;50.694;7.246;2023-05-10T01:10:13;14.00;63.50
4097;DHT22;2062;50.694;7.246;2023-05-10T01:12:43;14.10;63.80
4097;DHT22;2062;50.694;7.246;2023-05-10T01:15:11;14.00;63.60
4097;DHT22;2062;50.694;7.246;2023-05-10T01:17:42;14.00;63.70
4097;DHT22;2062;50.694;7.246;2023-05-10T01:20:11;14.00;63.70
4097;DHT22;2062;50.694;7.246;2023-05-10T01:29:05;14.00;63.70
4097;DHT22;2062;50.694;7.246;2023-05-10T01:32:03;14.00;63.80
4097;DHT22;2062;50.694;7.246;2023-05-10T01:34:35;14.00;64.10
4097;DHT22;2062;50.694;7.246;2023-05-10T01:37:09;14.00;64.00
4097;DHT22;2062;50.694;7.246;2023-05-10T01:39:45;14.00;64.00
4097;DHT22;2062;50.694;7.246;2023-05-10T01:42:17;14.00;64.20
4097;DHT22;2062;50.694;7.246;2023-05-10T01:44:51;14.00;64.30
4097;DHT22;2062;50.694;7.246;2023-05-10T01:47:29;14.00;64.10
4097;DHT22;2062;50.694;7.246;2023-05-10T01:50:02;14.00;64.30
4097;DHT22;2062;50.694;7.246;2023-05-10T01:52:32;14.10;64.60
4097;DHT22;2062;50.694;7.246;2023-05-10T01:55:01;14.00;64.20
4097;DHT22;2062;50.694;7.246;2023-05-10T01:57:33;14.00;64.30
4097;DHT22;2062;50.694;7.246;2023-05-10T02:00:02;13.90;64.60
4097;DHT22;2062;50.694;7.246;2023-05-10T02:02:33;13.90;64.60
4097;DHT22;2062;50.694;7.246;2023-05-10T02:05:02;14.00;64.60
4097;DHT22;2062;50.694;7.246;2023-05-10T02:07:30;13.90;64.60
4097;DHT22;2062;50.694;7.246;2023-05-10T02:09:58;13.90;64.60
4097;DHT22;2062;50.694;7.246;2023-05-10T02:12:25;13.90;64.70
4097;DHT22;2062;50.694;7.246;2023-05-10T02:14:53;13.90;64.70
4097;DHT22;2062;50.694;7.246;2023-05-10T02:17:21;13.90;64.60
4097;DHT22;2062;50.694;7.246;2023-05-10T02:19:51;13.90;64.60
4097;DHT22;2062;50.694;7.246;2023-05-10T02:22:20;13.90;64.60
4097;DHT22;2062;50.694;7.246;2023-05-10T02:24:47;13.90;64.90
4097;DHT22;2062;50.694;7.246;2023-05-10T02:27:16;13.90;64.80
4097;DHT22;2062;50.694;7.246;2023-05-10T02:29:44;13.90;64.90
4097;DHT22;2062;50.694;7.246;2023-05-10T02:32:12;13.90;65.10
4097;DHT22;2062;50.694;7.246;2023-05-10T02:34:39;13.90;64.90
4097;DHT22;2062;50.694;7.246;2023-05-10T02:37:09;13.90;64.90
4097;DHT22;2062;50.694;7.246;2023-05-10T02:39:36;13.80;65.10
4097;DHT22;2062;50.694;7.246;2023-05-10T02:42:06;13.80;65.00
4097;DHT22;2062;50.694;7.246;2023-05-10T02:44:34;13.80;65.00
4097;DHT22;2062;50.694;7.246;2023-05-10T02:47:02;13.80;65.00
4097;DHT22;2062;50.694;7.246;2023-05-10T02:49:29;13.80;65.10
4097;DHT22;2062;50.694;7.246;2023-05-10T02:51:59;13.80;65.10
4097;DHT22;2062;50.694;7.246;2023-05-10T02:54:31;13.80;65.20
4097;DHT22;2062;50.694;7.246;2023-05-10T02:57:03;13.80;65.40
4097;DHT22;2062;50.694;7.246;2023-05-10T02:59:30;13.80;65.20
4097;DHT22;2062;50.694;7.246;2023-05-10T03:01:58;13.80;65.30
4097;DHT22;2062;50.694;7.246;2023-05-10T03:04:26;13.80;65.50
4097;DHT22;2062;50.694;7.246;2023-05-10T03:06:52;13.70;65.60
4097;DHT22;2062;50.694;7.246;2023-05-10T03:09:19;13.70;65.50
4097;DHT22;2062;50.694;7.246;2023-05-10T03:11:55;13.80;65.80
4097;DHT22;2062;50.694;7.246;2023-05-10T03:14:38;13.80;65.80
4097;DHT22;2062;50.694;7.246;2023-05-10T03:17:11;13.70;65.90
4097;DHT22;2062;50.694;7.246;2023-05-10T03:19:47;13.70;65.80
4097;DHT22;2062;50.694;7.246;2023-05-10T03:22:20;13.80;65.70
4097;DHT22;2062;50.694;7.246;2023-05-10T03:24:49;13.70;65.70
4097;DHT22;2062;50.694;7.246;2023-05-10T03:27:17;13.70;65.70
4097;DHT22;2062;50.694;7.246;2023-05-10T03:29:45;13.70;65.70
4097;DHT22;2062;50.694;7.246;2023-05-10T03:32:13;13.70;65.70
4097;DHT22;2062;50.694;7.246;2023-05-10T03:34:41;13.70;65.90
4097;DHT22;2062;50.694;7.246;2023-05-10T03:37:09;13.70;65.70
4097;DHT22;2062;50.694;7.246;2023-05-10T03:39:35;13.70;65.90
4097;DHT22;2062;50.694;7.246;2023-05-10T03:42:02;13.70;65.90
4097;DHT22;2062;50.694;7.246;2023-05-10T03:44:30;13.70;66.00
4097;DHT22;2062;50.694;7.246;2023-05-10T03:46:58;13.70;66.00
4097;DHT22;2062;50.694;7.246;2023-05-10T03:49:25;13.70;66.10
4097;DHT22;2062;50.694;7.246;2023-05-10T03:51:52;13.70;66.30
4097;DHT22;2062;50.694;7.246;2023-05-10T03:54:19;13.70;66.60
4097;DHT22;2062;50.694;7.246;2023-05-10T03:56:45;13.70;66.50
4097;DHT22;2062;50.694;7.246;2023-05-10T03:59:13;13.70;66.80
4097;DHT22;2062;50.694;7.246;2023-05-10T04:01:42;13.70;66.70
4097;DHT22;2062;50.694;7.246;2023-05-10T04:04:09;13.70;66.90
4097;DHT22;2062;50.694;7.246;2023-05-10T04:06:35;13.70;66.90
4097;DHT22;2062;50.694;7.246;2023-05-10T04:09:02;13.70;67.00
4097;DHT22;2062;50.694;7.246;2023-05-10T04:11:30;13.70;67.20
4097;DHT22;2062;50.694;7.246;2023-05-10T04:13:57;13.70;68.00
4097;DHT22;2062;50.694;7.246;2023-05-10T04:16:24;13.70;67.10
4097;DHT22;2062;50.694;7.246;2023-05-10T04:18:52;13.70;67.10
4097;DHT22;2062;50.694;7.246;2023-05-10T04:21:19;13.70;67.20
4097;DHT22;2062;50.694;7.246;2023-05-10T04:23:46;13.70;67.30
4097;DHT22;2062;50.694;7.246;2023-05-10T04:26:13;13.70;67.20
4097;DHT22;2062;50.694;7.246;2023-05-10T04:28:39;13.70;67.20
4097;DHT22;2062;50.694;7.246;2023-05-10T04:31:08;13.70;67.30
4097;DHT22;2062;50.694;7.246;2023-05-10T04:33:35;13.70;67.50
4097;DHT22;2062;50.694;7.246;2023-05-10T04:36:04;13.70;67.30
4097;DHT22;2062;50.694;7.246;2023-05-10T04:38:31;13.70;67.40
4097;DHT22;2062;50.694;7.246;2023-05-10T04:41:04;13.70;67.50
4097;DHT22;2062;50.694;7.246;2023-05-10T04:43:31;13.70;67.70
4097;DHT22;2062;50.694;7.246;2023-05-10T04:45:58;13.70;67.70
4097;DHT22;2062;50.694;7.246;2023-05-10T04:48:25;13.70;67.80
4097;DHT22;2062;50.694;7.246;2023-05-10T04:50:52;13.70;68.00
4097;DHT22;2062;50.694;7.246;2023-05-10T04:53:20;13.70;68.10
4097;DHT22;2062;50.694;7.246;2023-05-10T04:55:47;13.70;68.00
4097;DHT22;2062;50.694;7.246;2023-05-10T04:58:14;13.70;68.10
4097;DHT22;2062;50.694;7.246;2023-05-10T05:00:41;13.70;68.00
4097;DHT22;2062;50.694;7.246;2023-05-10T05:03:08;13.70;68.10
4097;DHT22;2062;50.694;7.246;2023-05-10T05:05:35;13.80;68.20
4097;DHT22;2062;50.694;7.246;2023-05-10T05:08:02;13.80;68.50
4097;DHT22;2062;50.694;7.246;2023-05-10T05:10:30;13.80;68.40
4097;DHT22;2062;50.694;7.246;2023-05-10T05:12:57;13.80;68.40
4097;DHT22;2062;50.694;7.246;2023-05-10T05:15:23;13.80;68.50
4097;DHT22;2062;50.694;7.246;2023-05-10T05:17:50;13.80;68.50
4097;DHT22;2062;50.694;7.246;2023-05-10T05:20:17;13.80;68.50
4097;DHT22;2062;50.694;7.246;2023-05-10T05:22:44;13.80;68.60
4097;DHT22;2062;50.694;7.246;2023-05-10T05:25:11;13.90;68.90
4097;DHT22;2062;50.694;7.246;2023-05-10T05:27:39;13.90;68.80
4097;DHT22;2062;50.694;7.246;2023-05-10T05:30:07;13.90;68.90
4097;DHT22;2062;50.694;7.246;2023-05-10T05:32:34;13.90;68.90
4097;DHT22;2062;50.694;7.246;2023-05-10T05:35:01;13.90;68.80
4097;DHT22;2062;50.694;7.246;2023-05-10T05:37:28;14.00;68.80
4097;DHT22;2062;50.694;7.246;2023-05-10T05:39:54;13.90;68.80
4097;DHT22;2062;50.694;7.246;2023-05-10T05:42:21;13.90;68.90
4097;DHT22;2062;50.694;7.246;2023-05-10T05:44:49;13.90;68.80
4097;DHT22;2062;50.694;7.246;2023-05-10T05:47:16;14.00;68.80
4097;DHT22;2062;50.694;7.246;2023-05-10T05:49:43;14.00;68.80
4097;DHT22;2062;50.694;7.246;2023-05-10T05:52:11;14.00;68.80
4097;DHT22;2062;50.694;7.246;2023-05-10T05:54:38;14.00;68.90
4097;DHT22;2062;50.694;7.246;2023-05-10T05:57:05;14.00;69.00
4097;DHT22;2062;50.694;7.246;2023-05-10T05:59:32;14.00;68.90
4097;DHT22;2062;50.694;7.246;2023-05-10T06:02:00;14.10;69.10
4097;DHT22;2062;50.694;7.246;2023-05-10T06:04:27;14.10;69.40
4097;DHT22;2062;50.694;7.246;2023-05-10T06:06:53;14.10;69.20
4097;DHT22;2062;50.694;7.246;2023-05-10T06:09:20;14.10;69.20
4097;DHT22;2062;50.694;7.246;2023-05-10T06:11:49;14.20;69.40
4097;DHT22;2062;50.694;7.246;2023-05-10T06:14:15;14.20;69.40
4097;DHT22;2062;50.694;7.246;2023-05-10T06:16:42;14.30;69.60
4097;DHT22;2062;50.694;7.246;2023-05-10T06:19:10;14.20;69.30
4097;DHT22;2062;50.694;7.246;2023-05-10T06:21:37;14.20;69.50
4097;DHT22;2062;50.694;7.246;2023-05-10T06:24:05;14.30;69.70
4097;DHT22;2062;50.694;7.246;2023-05-10T06:26:33;14.30;69.60
4097;DHT22;2062;50.694;7.246;2023-05-10T06:29:00;14.30;69.60
4097;DHT22;2062;50.694;7.246;2023-05-10T06:31:26;14.40;69.70
4097;DHT22;2062;50.694;7.246;2023-05-10T06:33:53;14.40;69.80
4097;DHT22;2062;50.694;7.246;2023-05-10T06:36:21;14.40;69.80
4097;DHT22;2062;50.694;7.246;2023-05-10T06:38:50;14.50;70.00
4097;DHT22;2062;50.694;7.246;2023-05-10T06:41:16;14.60;70.40
4097;DHT22;2062;50.694;7.246;2023-05-10T06:43:43;14.80;70.60
4097;DHT22;2062;50.694;7.246;2023-05-10T06:46:10;14.90;70.70
4097;DHT22;2062;50.694;7.246;2023-05-10T06:48:37;14.90;70.40
4097;DHT22;2062;50.694;7.246;2023-05-10T06:51:03;15.00;70.30
4097;DHT22;2062;50.694;7.246;2023-05-10T06:53:32;15.10;70.10
4097;DHT22;2062;50.694;7.246;2023-05-10T06:55:59;15.20;70.00
4097;DHT22;2062;50.694;7.246;2023-05-10T06:58:26;15.30;69.80
4097;DHT22;2062;50.694;7.246;2023-05-10T07:00:53;15.30;69.60
4097;DHT22;2062;50.694;7.246;2023-05-10T07:03:20;15.30;69.50
4097;DHT22;2062;50.694;7.246;2023-05-10T07:05:47;15.40;69.30
4097;DHT22;2062;50.694;7.246;2023-05-10T07:08:14;15.40;69.20
4097;DHT22;2062;50.694;7.246;2023-05-10T07:10:42;15.50;69.10
4097;DHT22;2062;50.694;7.246;2023-05-10T07:13:09;15.40;68.90
4097;DHT22;2062;50.694;7.246;2023-05-10T07:15:36;15.40;68.80
4097;DHT22;2062;50.694;7.246;2023-05-10T07:18:03;15.40;68.80
4097;DHT22;2062;50.694;7.246;2023-05-10T07:20:31;15.40;68.90
4097;DHT22;2062;50.694;7.246;2023-05-10T07:22:58;15.40;68.80
4097;DHT22;2062;50.694;7.246;2023-05-10T07:25:25;15.40;68.70
4097;DHT22;2062;50.694;7.246;2023-05-10T07:27:53;15.40;68.60
4097;DHT22;2062;50.694;7.246;2023-05-10T07:30:20;15.30;68.80
4097;DHT22;2062;50.694;7.246;2023-05-10T07:32:47;15.30;68.60
4097;DHT22;2062;50.694;7.246;2023-05-10T07:35:14;15.30;68.50
4097;DHT22;2062;50.694;7.246;2023-05-10T07:37:41;15.30;68.40
4097;DHT22;2062;50.694;7.246;2023-05-10T07:40:08;15.30;68.40
4097;DHT22;2062;50.694;7.246;2023-05-10T07:42:35;15.20;68.10
4097;DHT22;2062;50.694;7.246;2023-05-10T07:45:04;15.30;68.20
4097;DHT22;2062;50.694;7.246;2023-05-10T07:47:31;15.30;68.30
4097;DHT22;2062;50.694;7.246;2023-05-10T07:49:58;15.20;68.30
4097;DHT22;2062;50.694;7.246;2023-05-10T07:52:25;15.20;68.30
4097;DHT22;2062;50.694;7.246;2023-05-10T07:54:52;15.20;68.40
4097;DHT22;2062;50.694;7.246;2023-05-10T07:57:19;15.20;68.40
4097;DHT22;2062;50.694;7.246;2023-05-10T07:59:45;15.20;68.60
4097;DHT22;2062;50.694;7.246;2023-05-10T08:02:14;15.20;68.60
4097;DHT22;2062;50.694;7.246;2023-05-10T08:04:41;15.20;68.50
4097;DHT22;2062;50.694;7.246;2023-05-10T08:07:07;15.20;68.60
4097;DHT22;2062;50.694;7.246;2023-05-10T08:09:34;15.20;68.60
4097;DHT22;2062;50.694;7.246;2023-05-10T08:12:01;15.20;68.60
4097;DHT22;2062;50.694;7.246;2023-05-10T08:14:28;15.20;68.60
4097;DHT22;2062;50.694;7.246;2023-05-10T08:16:55;15.20;68.50
4097;DHT22;2062;50.694;7.246;2023-05-10T08:19:24;15.20;68.50
4097;DHT22;2062;50.694;7.246;2023-05-10T08:21:50;15.20;68.50
4097;DHT22;2062;50.694;7.246;2023-05-10T08:24:18;15.20;68.60
4097;DHT22;2062;50.694;7.246;2023-05-10T08:26:45;15.20;68.70
4097;DHT22;2062;50.694;7.246;2023-05-10T08:29:13;15.20;68.70
4097;DHT22;2062;50.694;7.246;2023-05-10T08:31:40;15.30;68.80
4097;DHT22;2062;50.694;7.246;2023-05-10T08:34:06;15.20;68.70
4097;DHT22;2062;50.694;7.246;2023-05-10T08:36:35;15.20;69.60
4097;DHT22;2062;50.694;7.246;2023-05-10T08:39:01;15.30;68.80
4097;DHT22;2062;50.694;7.246;2023-05-10T08:41:29;15.30;68.90
4097;DHT22;2062;50.694;7.246;2023-05-10T08:43:58;15.30;68.80
4097;DHT22;2062;50.694;7.246;2023-05-10T08:46:26;15.30;68.90
4097;DHT22;2062;50.694;7.246;2023-05-10T08:48:54;15.40;68.80
4097;DHT22;2062;50.694;7.246;2023-05-10T08:51:24;15.40;68.90
4097;DHT22;2062;50.694;7.246;2023-05-10T08:53:53;15.40;68.80
4097;DHT22;2062;50.694;7.246;2023-05-10T08:56:20;15.40;68.80
4097;DHT22;2062;50.694;7.246;2023-05-10T08:58:47;15.50;68.90
4097;DHT22;2062;50.694;7.246;2023-05-10T09:01:16;15.50;68.80
4097;DHT22;2062;50.694;7.246;2023-05-10T09:03:46;15.50;68.60
4097;DHT22;2062;50.694;7.246;2023-05-10T09:06:13;15.50;68.60
4097;DHT22;2062;50.694;7.246;2023-05-10T09:08:40;15.50;68.70
4097;DHT22;2062;50.694;7.246;2023-05-10T09:11:10;15.50;68.60
4097;DHT22;2062;50.694;7.246;2023-05-10T09:13:37;15.50;68.70
4097;DHT22;2062;50.694;7.246;2023-05-10T09:16:04;15.50;68.60
4097;DHT22;2062;50.694;7.246;2023-05-10T09:18:31;15.50;68.50
4097;DHT22;2062;50.694;7.246;2023-05-10T09:20:58;15.50;68.50
4097;DHT22;2062;50.694;7.246;2023-05-10T09:23:25;15.40;68.40
4097;DHT22;2062;50.694;7.246;2023-05-10T09:26:04;15.40;68.20
4097;DHT22;2062;50.694;7.246;2023-05-10T09:28:50;15.40;68.00
4097;DHT22;2062;50.694;7.246;2023-05-10T09:31:17;15.40;67.80
4097;DHT22;2062;50.694;7.246;2023-05-10T09:33:44;15.30;67.70
4097;DHT22;2062;50.694;7.246;2023-05-10T09:36:12;15.30;67.70
4097;DHT22;2062;50.694;7.246;2023-05-10T09:38:45;15.20;67.60
4097;DHT22;2062;50.694;7.246;2023-05-10T09:41:17;15.20;67.70
4097;DHT22;2062;50.694;7.246;2023-05-10T09:43:45;15.20;67.90
4097;DHT22;2062;50.694;7.246;2023-05-10T09:46:12;15.10;67.90
4097;DHT22;2062;50.694;7.246;2023-05-10T09:48:42;15.00;68.00
4097;DHT22;2062;50.694;7.246;2023-05-10T09:51:09;15.00;68.10
4097;DHT22;2062;50.694;7.246;2023-05-10T09:53:36;15.00;68.10
4097;DHT22;2062;50.694;7.246;2023-05-10T09:56:03;15.00;68.50
4097;DHT22;2062;50.694;7.246;2023-05-10T09:58:30;15.00;68.70
4097;DHT22;2062;50.694;7.246;2023-05-10T10:00:58;15.00;68.90
4097;DHT22;2062;50.694;7.246;2023-05-10T10:03:25;15.10;69.20
4097;DHT22;2062;50.694;7.246;2023-05-10T10:05:52;15.00;69.20
4097;DHT22;2062;50.694;7.246;2023-05-10T10:08:21;15.10;69.30
4097;DHT22;2062;50.694;7.246;2023-05-10T10:10:49;15.10;69.60
4097;DHT22;2062;50.694;7.246;2023-05-10T10:13:16;15.10;69.50
4097;DHT22;2062;50.694;7.246;2023-05-10T10:15:43;15.10;69.60
4097;DHT22;2062;50.694;7.246;2023-05-10T10:18:14;15.20;69.50
4097;DHT22;2062;50.694;7.246;2023-05-10T10:20:41;15.20;69.50
4097;DHT22;2062;50.694;7.246;2023-05-10T10:23:08;15.30;69.60
4097;DHT22;2062;50.694;7.246;2023-05-10T10:25:35;15.30;69.80
4097;DHT22;2062;50.694;7.246;2023-05-10T10:28:29;15.40;69.60
4097;DHT22;2062;50.694;7.246;2023-05-10T10:31:02;15.50;69.90
4097;DHT22;2062;50.694;7.246;2023-05-10T10:33:51;15.50;70.30
4097;DHT22;2062;50.694;7.246;2023-05-10T10:36:21;15.70;70.10
4097;DHT22;2062;50.694;7.246;2023-05-10T10:38:58;15.80;70.30
4097;DHT22;2062;50.694;7.246;2023-05-10T10:41:30;15.90;69.90
4097;DHT22;2062;50.694;7.246;2023-05-10T10:44:35;16.10;69.80
4097;DHT22;2062;50.694;7.246;2023-05-10T10:47:09;16.10;69.60
4097;DHT22;2062;50.694;7.246;2023-05-10T10:49:43;16.20;69.10
4097;DHT22;2062;50.694;7.246;2023-05-10T10:52:20;16.30;68.90
4097;DHT22;2062;50.694;7.246;2023-05-10T10:54:51;16.30;68.70
4097;DHT22;2062;50.694;7.246;2023-05-10T10:57:19;16.30;68.80
4097;DHT22;2062;50.694;7.246;2023-05-10T10:59:48;16.30;68.60
4097;DHT22;2062;50.694;7.246;2023-05-10T11:02:33;16.30;69.40
4097;DHT22;2062;50.694;7.246;2023-05-10T11:08:15;16.30;68.40
4097;DHT22;2062;50.694;7.246;2023-05-10T11:11:01;16.30;68.40
4097;DHT22;2062;50.694;7.246;2023-05-10T11:13:29;16.30;68.30
4097;DHT22;2062;50.694;7.246;2023-05-10T11:15:57;16.30;67.90
4097;DHT22;2062;50.694;7.246;2023-05-10T11:18:25;16.30;68.10
4097;DHT22;2062;50.694;7.246;2023-05-10T11:20:56;16.30;68.30
4097;DHT22;2062;50.694;7.246;2023-05-10T11:23:30;16.30;68.30
4097;DHT22;2062;50.694;7.246;2023-05-10T11:25:57;16.30;68.40
4097;DHT22;2062;50.694;7.246;2023-05-10T11:28:24;16.30;68.30
4097;DHT22;2062;50.694;7.246;2023-05-10T11:30:52;16.40;67.90
4097;DHT22;2062;50.694;7.246;2023-05-10T11:33:19;16.30;67.90
4097;DHT22;2062;50.694;7.246;2023-05-10T11:35:46;16.40;67.80
4097;DHT22;2062;50.694;7.246;2023-05-10T11:38:13;16.40;67.80
4097;DHT22;2062;50.694;7.246;2023-05-10T11:40:42;16.40;67.70
4097;DHT22;2062;50.694;7.246;2023-05-10T11:43:09;16.30;67.60
4097;DHT22;2062;50.694;7.246;2023-05-10T11:45:37;16.40;67.90
4097;DHT22;2062;50.694;7.246;2023-05-10T11:48:04;16.40;67.50
4097;DHT22;2062;50.694;7.246;2023-05-10T11:50:31;16.40;67.50
4097;DHT22;2062;50.694;7.246;2023-05-10T11:52:58;16.30;67.50
4097;DHT22;2062;50.694;7.246;2023-05-10T11:55:25;16.30;67.60
4097;DHT22;2062;50.694;7.246;2023-05-10T11:57:54;16.40;67.80
4097;DHT22;2062;50.694;7.246;2023-05-10T12:00:21;16.40;67.70
4097;DHT22;2062;50.694;7.246;2023-05-10T12:02:48;16.40;68.00
4097;DHT22;2062;50.694;7.246;2023-05-10T12:05:15;16.50;68.10
4097;DHT22;2062;50.694;7.246;2023-05-10T12:07:42;16.50;67.80
4097;DHT22;2062;50.694;7.246;2023-05-10T12:10:10;16.60;67.50
4097;DHT22;2062;50.694;7.246;2023-05-10T12:12:40;16.70;67.40
4097;DHT22;2062;50.694;7.246;2023-05-10T12:15:17;16.80;67.30
4097;DHT22;2062;50.694;7.246;2023-05-10T12:17:45;16.80;66.60
4097;DHT22;2062;50.694;7.246;2023-05-10T12:20:16;16.90;66.80
4097;DHT22;2062;50.694;7.246;2023-05-10T12:22:47;16.90;65.90
4097;DHT22;2062;50.694;7.246;2023-05-10T12:25:15;17.00;65.70
4097;DHT22;2062;50.694;7.246;2023-05-10T12:27:48;17.00;65.50
4097;DHT22;2062;50.694;7.246;2023-05-10T12:30:21;17.00;65.40
4097;DHT22;2062;50.694;7.246;2023-05-10T12:32:48;17.10;65.20
4097;DHT22;2062;50.694;7.246;2023-05-10T12:35:15;17.10;64.90
4097;DHT22;2062;50.694;7.246;2023-05-10T12:37:43;17.10;64.70
4097;DHT22;2062;50.694;7.246;2023-05-10T12:40:11;17.00;64.50
4097;DHT22;2062;50.694;7.246;2023-05-10T12:42:39;17.00;64.70
4097;DHT22;2062;50.694;7.246;2023-05-10T12:45:07;17.00;64.60
4097;DHT22;2062;50.694;7.246;2023-05-10T12:47:37;17.00;66.00
4097;DHT22;2062;50.694;7.246;2023-05-10T12:50:04;16.90;65.40
4097;DHT22;2062;50.694;7.246;2023-05-10T12:52:32;16.90;65.50
4097;DHT22;2062;50.694;7.246;2023-05-10T12:54:59;16.80;65.30
4097;DHT22;2062;50.694;7.246;2023-05-10T12:57:26;16.80;65.40
4097;DHT22;2062;50.694;7.246;2023-05-10T12:59:54;16.80;65.80
4097;DHT22;2062;50.694;7.246;2023-05-10T13:02:21;16.80;66.00
4097;DHT22;2062;50.694;7.246;2023-05-10T13:04:50;16.80;65.50
4097;DHT22;2062;50.694;7.246;2023-05-10T13:07:17;16.70;65.60
4097;DHT22;2062;50.694;7.246;2023-05-10T13:09:44;16.70;65.60
4097;DHT22;2062;50.694;7.246;2023-05-10T13:12:11;16.70;65.80
4097;DHT22;2062;50.694;7.246;2023-05-10T13:14:38;16.70;65.80
4097;DHT22;2062;50.694;7.246;2023-05-10T13:17:06;16.70;66.00
4097;DHT22;2062;50.694;7.246;2023-05-10T13:19:33;16.80;66.00
4097;DHT22;2062;50.694;7.246;2023-05-10T13:22:02;16.80;65.90
4097;DHT22;2062;50.694;7.246;2023-05-10T13:24:29;16.90;66.20
4097;DHT22;2062;50.694;7.246;2023-05-10T13:26:55;16.90;66.10
4097;DHT22;2062;50.694;7.246;2023-05-10T13:29:22;17.00;66.20
4097;DHT22;2062;50.694;7.246;2023-05-10T13:31:49;17.00;66.00
4097;DHT22;2062;50.694;7.246;2023-05-10T13:34:16;17.10;65.90
4097;DHT22;2062;50.694;7.246;2023-05-10T13:36:46;17.10;65.80
4097;DHT22;2062;50.694;7.246;2023-05-10T13:39:14;17.10;65.70
4097;DHT22;2062;50.694;7.246;2023-05-10T13:41:41;17.20;65.50
4097;DHT22;2062;50.694;7.246;2023-05-10T13:44:08;17.20;65.60
4097;DHT22;2062;50.694;7.246;2023-05-10T13:46:35;17.20;65.60
4097;DHT22;2062;50.694;7.246;2023-05-10T13:49:03;17.30;65.70
4097;DHT22;2062;50.694;7.246;2023-05-10T13:51:30;17.30;65.70
4097;DHT22;2062;50.694;7.246;2023-05-10T13:53:57;17.30;65.60
4097;DHT22;2062;50.694;7.246;2023-05-10T13:56:25;17.30;65.60
4097;DHT22;2062;50.694;7.246;2023-05-10T13:58:52;17.30;65.30
4097;DHT22;2062;50.694;7.246;2023-05-10T14:01:19;17.40;65.30
4097;DHT22;2062;50.694;7.246;2023-05-10T14:03:46;17.40;65.20
4097;DHT22;2062;50.694;7.246;2023-05-10T14:06:13;17.40;64.90
4097;DHT22;2062;50.694;7.246;2023-05-10T14:08:40;17.30;64.90
4097;DHT22;2062;50.694;7.246;2023-05-10T14:11:07;17.40;64.80
4097;DHT22;2062;50.694;7.246;2023-05-10T14:13:35;17.30;64.70
4097;DHT22;2062;50.694;7.246;2023-05-10T14:16:02;17.30;64.60
4097;DHT22;2062;50.694;7.246;2023-05-10T14:18:28;17.30;64.70
4097;DHT22;2062;50.694;7.246;2023-05-10T14:20:56;17.30;64.50
4097;DHT22;2062;50.694;7.246;2023-05-10T14:23:23;17.30;64.70
4097;DHT22;2062;50.694;7.246;2023-05-10T14:25:51;17.30;64.80
4097;DHT22;2062;50.694;7.246;2023-05-10T14:28:18;17.20;64.50
4097;DHT22;2062;50.694;7.246;2023-05-10T14:30:47;17.20;64.50
4097;DHT22;2062;50.694;7.246;2023-05-10T14:33:14;17.10;64.70
4097;DHT22;2062;50.694;7.246;2023-05-10T14:35:41;17.10;64.70
4097;DHT22;2062;50.694;7.246;2023-05-10T14:38:08;17.00;64.50
4097;DHT22;2062;50.694;7.246;2023-05-10T14:40:34;17.00;64.70
4097;DHT22;2062;50.694;7.246;2023-05-10T14:43:01;16.90;64.50
4097;DHT22;2062;50.694;7.246;2023-05-10T14:45:28;16.90;64.60
4097;DHT22;2062;50.694;7.246;2023-05-10T14:47:56;16.80;64.50
4097;DHT22;2062;50.694;7.246;2023-05-10T14:50:23;16.80;64.60
4097;DHT22;2062;50.694;7.246;2023-05-10T14:52:50;16.70;64.80
4097;DHT22;2062;50.694;7.246;2023-05-10T14:55:17;16.70;64.90
4097;DHT22;2062;50.694;7.246;2023-05-10T14:57:44;16.60;65.40
4097;DHT22;2062;50.694;7.246;2023-05-10T15:00:13;16.60;65.70
4097;DHT22;2062;50.694;7.246;2023-05-10T15:02:41;16.60;66.40
4097;DHT22;2062;50.694;7.246;2023-05-10T15:05:09;16.60;65.60
4097;DHT22;2062;50.694;7.246;2023-05-10T15:07:36;16.60;66.10
4097;DHT22;2062;50.694;7.246;2023-05-10T15:10:05;16.60;66.10
4097;DHT22;2062;50.694;7.246;2023-05-10T15:12:32;16.70;66.40
4097;DHT22;2062;50.694;7.246;2023-05-10T15:14:58;16.70;66.40
4097;DHT22;2062;50.694;7.246;2023-05-10T15:17:25;16.80;66.60
4097;DHT22;2062;50.694;7.246;2023-05-10T15:19:52;16.90;66.80
4097;DHT22;2062;50.694;7.246;2023-05-10T15:22:20;17.10;66.80
4097;DHT22;2062;50.694;7.246;2023-05-10T15:24:47;17.10;66.80
4097;DHT22;2062;50.694;7.246;2023-05-10T15:27:14;17.20;66.60
4097;DHT22;2062;50.694;7.246;2023-05-10T15:29:41;17.30;66.50
4097;DHT22;2062;50.694;7.246;2023-05-10T15:32:08;17.40;66.40
4097;DHT22;2062;50.694;7.246;2023-05-10T15:34:35;17.40;66.40
4097;DHT22;2062;50.694;7.246;2023-05-10T15:37:02;17.60;66.60
4097;DHT22;2062;50.694;7.246;2023-05-10T15:39:30;17.60;66.40
4097;DHT22;2062;50.694;7.246;2023-05-10T15:41:57;17.70;66.50
4097;DHT22;2062;50.694;7.246;2023-05-10T15:44:24;17.80;67.40
4097;DHT22;2062;50.694;7.246;2023-05-10T15:46:51;18.00;66.50
4097;DHT22;2062;50.694;7.246;2023-05-10T15:49:17;18.00;66.40
4097;DHT22;2062;50.694;7.246;2023-05-10T15:51:44;18.10;66.50
4097;DHT22;2062;50.694;7.246;2023-05-10T15:54:11;18.20;66.40
4097;DHT22;2062;50.694;7.246;2023-05-10T15:56:39;18.30;66.20
4097;DHT22;2062;50.694;7.246;2023-05-10T15:59:06;18.30;66.00
4097;DHT22;2062;50.694;7.246;2023-05-10T16:01:35;18.40;65.80
4097;DHT22;2062;50.694;7.246;2023-05-10T16:04:02;18.50;65.60
4097;DHT22;2062;50.694;7.246;2023-05-10T16:06:29;18.50;65.30
4097;DHT22;2062;50.694;7.246;2023-05-10T16:08:55;18.60;65.60
4097;DHT22;2062;50.694;7.246;2023-05-10T16:11:22;18.60;65.40
4097;DHT22;2062;50.694;7.246;2023-05-10T16:13:51;18.70;65.40
4097;DHT22;2062;50.694;7.246;2023-05-10T16:16:18;18.80;65.10
4097;DHT22;2062;50.694;7.246;2023-05-10T16:18:45;18.80;65.20